Time;durP1;ratioP1;P1;durP2;ratioP2;P2;SDS_P1;SDS_P2;PMS_P1;PMS_P2;Temp;Humidity;BMP_temperature;BMP_pressure;BME280_temperature;BME280_humidity;BME280_pressure;Samples;Min_cycle;Max_cycle;Signal;HPM_P1;HPM_P2
2021/04/18 00:01:31;;;;;;;4.23;3.90;;;6.80;99.90;;;;;;5107591;28;20691;-52
2021/04/18 00:03:57;;;;;;;4.90;4.50;;;6.70;99.90;;;;;;5107980;28;20178;-52
2021/04/18 00:06:23;;;;;;;4.27;3.97;;;6.50;99.90;;;;;;5107559;28;20481;-51
2021/04/18 00:08:50;;;;;;;4.93;4.53;;;6.80;99.90;;;;;;5107712;28;20200;-52
2021/04/18 00:11:16;;;;;;;5.05;4.55;;;6.70;99.90;;;;;;5108058;28;20275;-52
2021/04/18 00:13:44;;;;;;;4.50;4.10;;;6.60;99.90;;;;;;5107534;28;20227;-52
2021/04/18 00:16:10;;;;;;;4.85;4.38;;;6.80;99.90;;;;;;5108030;28;20277;-52
2021/04/18 00:18:36;;;;;;;4.47;4.13;;;6.70;99.90;;;;;;5107479;28;20269;-52
2021/04/18 00:21:02;;;;;;;4.90;4.50;;;6.70;99.90;;;;;;5107605;28;20476;-52
2021/04/18 00:23:27;;;;;;;5.23;4.53;;;6.70;99.90;;;;;;5109080;28;20662;-52
2021/04/18 00:25:53;;;;;;;4.63;4.23;;;6.70;99.90;;;;;;5107689;28;20431;-52
2021/04/18 00:28:19;;;;;;;5.47;4.27;;;6.80;99.90;;;;;;5108824;28;20604;-51
2021/04/18 00:30:45;;;;;;;4.80;4.33;;;6.80;99.90;;;;;;5107442;28;20504;-52
2021/04/18 00:33:10;;;;;;;5.00;4.50;;;6.70;99.90;;;;;;5107333;28;20181;-52
2021/04/18 00:35:36;;;;;;;5.70;4.70;;;6.90;99.90;;;;;;5107587;28;20434;-52
2021/04/18 00:38:01;;;;;;;5.60;5.10;;;6.70;99.90;;;;;;5102942;28;20189;-52
2021/04/18 00:40:27;;;;;;;4.60;4.30;;;6.60;99.90;;;;;;5099830;28;20186;-52
2021/04/18 00:42:54;;;;;;;6.13;5.13;;;6.60;99.90;;;;;;5107530;28;20821;-54
2021/04/18 00:45:21;;;;;;;5.13;4.72;;;6.80;99.90;;;;;;5101914;28;20190;-54
2021/04/18 00:47:50;;;;;;;5.88;5.00;;;6.70;99.90;;;;;;5105168;28;20212;-52
2021/04/18 00:50:28;;;;;;;5.65;5.15;;;6.90;99.90;;;;;;5107338;28;20678;-54
2021/04/18 00:52:54;;;;;;;5.78;5.00;;;7.00;99.90;;;;;;5103621;28;20200;-51
2021/04/18 00:55:23;;;;;;;5.27;4.80;;;6.60;99.90;;;;;;5108703;28;20181;-54
2021/04/18 00:57:49;;;;;;;6.70;5.45;;;6.50;99.90;;;;;;5099705;28;20478;-52
2021/04/18 01:00:15;;;;;;;4.90;4.50;;;6.70;99.90;;;;;;5107214;28;20206;-51
2021/04/18 01:02:41;;;;;;;5.05;4.55;;;6.50;99.90;;;;;;5107251;28;20713;-53
2021/04/18 01:05:07;;;;;;;5.37;4.87;;;6.60;99.90;;;;;;5107406;28;20263;-53
2021/04/18 01:07:34;;;;;;;5.53;5.03;;;6.50;99.90;;;;;;5111144;28;20258;-52
2021/04/18 01:10:00;;;;;;;5.82;5.28;;;6.50;99.90;;;;;;5108395;28;20182;-52
2021/04/18 01:12:26;;;;;;;6.07;5.55;;;6.40;99.90;;;;;;5107607;27;20246;-52
2021/04/18 01:14:52;;;;;;;5.50;5.10;;;6.40;99.90;;;;;;5111122;28;20203;-52
2021/04/18 01:17:18;;;;;;;6.10;5.50;;;6.50;99.90;;;;;;5110879;28;20185;-54
2021/04/18 01:19:43;;;;;;;6.43;5.83;;;6.60;99.90;;;;;;5111179;28;20181;-54
2021/04/18 01:22:09;;;;;;;6.83;5.90;;;6.50;99.90;;;;;;5111269;28;20207;-52
2021/04/18 01:24:34;;;;;;;5.97;5.47;;;6.60;99.90;;;;;;5111927;28;20526;-52
2021/04/18 01:27:03;;;;;;;6.23;5.73;;;6.40;99.90;;;;;;5111046;28;20206;-53
2021/04/18 01:29:28;;;;;;;6.43;5.82;;;6.50;99.90;;;;;;5111923;28;20181;-52
2021/04/18 01:31:54;;;;;;;8.43;6.17;;;6.20;99.90;;;;;;5110243;28;20217;-53
2021/04/18 01:34:20;;;;;;;6.50;5.90;;;6.40;99.90;;;;;;5112531;28;20205;-52
2021/04/18 01:36:46;;;;;;;6.60;6.00;;;6.40;99.90;;;;;;5111010;28;20185;-52
2021/04/18 01:39:15;;;;;;;5.95;5.55;;;6.50;99.90;;;;;;5110867;28;20182;-52
2021/04/18 01:41:43;;;;;;;6.65;6.07;;;6.40;99.90;;;;;;5112210;28;20209;-52
2021/04/18 01:44:12;;;;;;;6.97;6.13;;;6.50;99.90;;;;;;5110219;28;20636;-52
2021/04/18 01:46:46;;;;;;;6.43;5.82;;;6.50;99.90;;;;;;5107184;28;20247;-54
2021/04/18 01:49:12;;;;;;;7.60;7.00;;;6.30;99.90;;;;;;5112463;28;20209;-51
2021/04/18 01:51:39;;;;;;;6.55;5.97;;;6.40;99.90;;;;;;5110125;28;20197;-52
2021/04/18 01:54:05;;;;;;;6.72;6.13;;;6.30;99.90;;;;;;5110414;28;20733;-52
2021/04/18 01:56:32;;;;;;;6.68;6.00;;;6.50;99.90;;;;;;5111741;28;20177;-54
2021/04/18 01:58:57;;;;;;;7.88;6.68;;;6.30;99.90;;;;;;5110307;28;20645;-54
2021/04/18 02:01:23;;;;;;;6.97;6.37;;;6.40;99.90;;;;;;5109942;28;20242;-52
2021/04/18 02:03:49;;;;;;;7.53;6.82;;;6.10;99.90;;;;;;5111518;28;20465;-52
2021/04/18 02:06:15;;;;;;;7.97;7.20;;;6.20;99.90;;;;;;5110353;28;20174;-52
2021/04/18 02:08:41;;;;;;;7.20;6.50;;;6.10;99.90;;;;;;5110437;28;20482;-54
2021/04/18 02:11:07;;;;;;;7.67;6.80;;;6.40;99.90;;;;;;5110420;28;20206;-52
2021/04/18 02:13:33;;;;;;;7.88;7.18;;;6.40;99.90;;;;;;5105039;28;20402;-54
2021/04/18 02:15:59;;;;;;;7.63;6.93;;;6.60;99.90;;;;;;5110051;28;20181;-51
2021/04/18 02:18:25;;;;;;;7.67;6.97;;;6.50;99.90;;;;;;5109269;28;20182;-51
2021/04/18 02:20:51;;;;;;;7.20;6.60;;;6.40;99.90;;;;;;5109834;28;20677;-52
2021/04/18 02:23:16;;;;;;;7.50;6.90;;;6.50;99.90;;;;;;5109999;28;20230;-51
2021/04/18 02:25:42;;;;;;;8.00;7.20;;;6.50;99.90;;;;;;5110333;28;20649;-52
2021/04/18 02:28:08;;;;;;;10.17;7.33;;;6.60;99.90;;;;;;5109686;28;20214;-52
2021/04/18 02:30:34;;;;;;;7.95;7.15;;;6.60;99.90;;;;;;5102200;28;20684;-52
2021/04/18 02:32:59;;;;;;;7.63;6.93;;;6.20;99.90;;;;;;5109637;28;20188;-52
2021/04/18 02:35:25;;;;;;;8.33;7.60;;;6.50;99.90;;;;;;5109606;28;20476;-52
2021/04/18 02:37:51;;;;;;;7.78;7.07;;;6.50;99.90;;;;;;5109814;28;20295;-52
2021/04/18 02:40:17;;;;;;;7.07;6.47;;;6.40;99.90;;;;;;5109506;28;20180;-52
2021/04/18 02:42:43;;;;;;;8.30;7.50;;;6.30;99.90;;;;;;5107284;28;20277;-52
2021/04/18 02:45:10;;;;;;;8.03;7.33;;;6.20;99.90;;;;;;5105902;28;20185;-51
2021/04/18 02:47:39;;;;;;;7.82;7.13;;;6.40;99.90;;;;;;5109066;28;20214;-51
2021/04/18 02:50:08;;;;;;;7.15;6.53;;;6.40;99.90;;;;;;5100798;28;20191;-52
2021/04/18 02:52:34;;;;;;;8.73;7.18;;;6.40;99.90;;;;;;5108710;28;20195;-51
2021/04/18 02:55:00;;;;;;;8.27;7.30;;;6.40;99.90;;;;;;5109202;28;20186;-51
2021/04/18 02:57:26;;;;;;;7.63;6.93;;;6.50;99.90;;;;;;5109314;28;20438;-52
2021/04/18 02:59:51;;;;;;;9.10;8.20;;;6.60;99.90;;;;;;5110396;28;20441;-51
2021/04/18 03:02:18;;;;;;;8.20;7.50;;;6.70;99.90;;;;;;5109153;28;20299;-51
2021/04/18 03:04:43;;;;;;;8.38;7.32;;;6.70;99.90;;;;;;5109022;28;20691;-52
2021/04/18 03:07:09;;;;;;;7.67;7.07;;;6.50;99.90;;;;;;5110691;28;20247;-52
2021/04/18 03:09:35;;;;;;;7.80;7.10;;;6.70;99.90;;;;;;5108516;28;20204;-54
2021/04/18 03:12:00;;;;;;;8.07;7.07;;;6.50;99.90;;;;;;5108053;28;20224;-52
2021/04/18 03:14:26;;;;;;;8.40;7.70;;;6.50;99.90;;;;;;5108714;28;20186;-52
2021/04/18 03:16:52;;;;;;;7.78;7.10;;;6.60;99.90;;;;;;5108861;28;20886;-52
2021/04/18 03:19:18;;;;;;;8.73;7.57;;;6.60;99.90;;;;;;5108702;28;20321;-53
2021/04/18 03:21:43;;;;;;;7.90;7.20;;;6.70;99.90;;;;;;5107134;28;20297;-52
2021/04/18 03:24:09;;;;;;;8.30;7.60;;;6.70;99.90;;;;;;5108437;28;20193;-52
2021/04/18 03:26:35;;;;;;;8.13;7.43;;;6.40;99.90;;;;;;5108557;28;20189;-52
2021/04/18 03:29:00;;;;;;;9.07;7.53;;;6.40;99.90;;;;;;5105729;28;20440;-52
2021/04/18 03:31:26;;;;;;;8.47;7.77;;;6.50;99.90;;;;;;5108142;28;20214;-52
2021/04/18 03:33:52;;;;;;;8.40;7.50;;;6.50;99.90;;;;;;5108399;28;20182;-52
2021/04/18 03:36:17;;;;;;;9.70;7.13;;;6.70;99.90;;;;;;5108527;28;20189;-52
2021/04/18 03:38:43;;;;;;;8.10;7.40;;;6.60;99.90;;;;;;5107736;28;20258;-52
2021/04/18 03:41:08;;;;;;;9.30;8.33;;;6.30;99.90;;;;;;5106773;28;20601;-52
2021/04/18 03:43:35;;;;;;;8.90;8.00;;;6.20;99.90;;;;;;5105673;28;20196;-52
2021/04/18 03:46:01;;;;;;;9.27;8.10;;;6.00;99.90;;;;;;5108681;28;20185;-52
2021/04/18 03:48:27;;;;;;;8.10;7.30;;;6.00;99.90;;;;;;5109863;28;20721;-52
2021/04/18 03:50:52;;;;;;;9.77;8.70;;;6.10;99.90;;;;;;5108015;28;20603;-52
2021/04/18 03:53:18;;;;;;;10.47;9.37;;;6.20;99.90;;;;;;5102512;28;20305;-52
2021/04/18 03:55:44;;;;;;;9.03;8.13;;;6.20;99.90;;;;;;5106367;28;20713;-52
2021/04/18 03:58:09;;;;;;;7.83;7.23;;;6.00;99.90;;;;;;5106222;28;20185;-52
2021/04/18 04:00:35;;;;;;;8.63;7.73;;;6.30;99.90;;;;;;5105149;28;20560;-54
2021/04/18 04:03:00;;;;;;;9.83;8.63;;;6.60;99.90;;;;;;5108083;28;20665;-51
2021/04/18 04:05:27;;;;;;;9.53;8.63;;;6.60;99.90;;;;;;5108157;28;20182;-51
2021/04/18 04:07:52;;;;;;;8.65;7.93;;;6.30;99.90;;;;;;5108217;28;20306;-54
2021/04/18 04:10:18;;;;;;;8.63;7.80;;;6.60;99.90;;;;;;5108166;28;20222;-54
2021/04/18 04:12:43;;;;;;;7.90;7.20;;;6.40;99.90;;;;;;5108106;28;20223;-54
2021/04/18 04:15:09;;;;;;;8.93;8.13;;;6.30;99.90;;;;;;5108336;28;20188;-54
2021/04/18 04:17:35;;;;;;;9.07;7.60;;;6.30;99.90;;;;;;5108369;28;20186;-54
2021/04/18 04:20:01;;;;;;;8.27;7.47;;;6.30;99.90;;;;;;5106075;28;21014;-54
2021/04/18 04:22:26;;;;;;;9.00;7.50;;;6.70;99.90;;;;;;5108242;28;20288;-54
2021/04/18 04:24:53;;;;;;;8.53;7.63;;;6.50;99.90;;;;;;5107720;28;20201;-54
2021/04/18 04:27:19;;;;;;;8.35;7.55;;;6.50;99.90;;;;;;5109129;28;20201;-51
2021/04/18 04:29:49;;;;;;;7.78;6.97;;;6.50;99.90;;;;;;5107661;28;20641;-55
2021/04/18 04:32:15;;;;;;;7.57;6.88;;;6.50;99.90;;;;;;5103969;28;20678;-52
2021/04/18 04:34:41;;;;;;;7.97;7.18;;;6.50;99.90;;;;;;5107107;28;20600;-52
2021/04/18 04:37:07;;;;;;;8.50;7.60;;;6.50;99.90;;;;;;5108299;28;20177;-52
2021/04/18 04:39:32;;;;;;;7.60;6.80;;;6.40;99.90;;;;;;5107970;28;20440;-52
2021/04/18 04:41:58;;;;;;;7.87;7.10;;;6.60;99.90;;;;;;5107218;28;20258;-53
2021/04/18 04:44:24;;;;;;;8.47;7.70;;;6.70;99.90;;;;;;5107601;28;20224;-52
2021/04/18 04:46:49;;;;;;;8.23;7.43;;;6.80;99.90;;;;;;5107453;28;20223;-52
2021/04/18 04:49:15;;;;;;;7.70;6.97;;;6.70;99.90;;;;;;5107857;28;20243;-52
2021/04/18 04:51:41;;;;;;;8.90;7.20;;;6.60;99.90;;;;;;5106990;28;20568;-52
2021/04/18 04:54:06;;;;;;;7.70;7.00;;;6.50;99.90;;;;;;5100975;28;20880;-52
2021/04/18 04:56:32;;;;;;;7.97;6.77;;;6.70;99.90;;;;;;5091917;28;20269;-52
2021/04/18 04:58:58;;;;;;;7.93;7.30;;;6.80;99.90;;;;;;5100373;28;20199;-52
2021/04/18 05:01:23;;;;;;;7.63;6.93;;;6.50;99.90;;;;;;5102425;28;20302;-53
2021/04/18 05:03:49;;;;;;;8.20;7.20;;;6.40;99.90;;;;;;5105941;28;20245;-52
2021/04/18 05:06:15;;;;;;;8.23;7.43;;;6.50;99.90;;;;;;5100864;28;20227;-50
2021/04/18 05:08:41;;;;;;;7.85;7.05;;;6.20;99.90;;;;;;5097038;28;20884;-51
2021/04/18 05:11:10;;;;;;;10.90;7.60;;;6.10;99.90;;;;;;5103344;28;20229;-53
2021/04/18 05:13:36;;;;;;;8.30;7.57;;;6.70;99.90;;;;;;5095553;28;20186;-55
2021/04/18 05:16:02;;;;;;;8.43;7.63;;;6.30;99.90;;;;;;5101819;28;20603;-56
2021/04/18 05:18:27;;;;;;;8.60;7.80;;;6.30;99.90;;;;;;5097033;28;20180;-57
2021/04/18 05:20:54;;;;;;;8.70;7.90;;;6.40;99.90;;;;;;5105347;28;20555;-55
2021/04/18 05:23:20;;;;;;;10.10;9.13;;;6.30;99.90;;;;;;5098719;28;22286;-55
2021/04/18 05:25:46;;;;;;;9.67;8.67;;;6.60;99.90;;;;;;5096668;28;20189;-55
2021/04/18 05:28:12;;;;;;;9.82;7.55;;;6.70;99.90;;;;;;5097600;28;21605;-53
2021/04/18 05:30:37;;;;;;;9.00;8.10;;;6.60;99.90;;;;;;5093327;28;20203;-54
2021/04/18 05:33:03;;;;;;;7.97;7.27;;;6.70;99.90;;;;;;5093311;28;20183;-54
2021/04/18 05:35:29;;;;;;;9.13;8.33;;;6.80;99.90;;;;;;5085692;28;20227;-54
2021/04/18 05:37:54;;;;;;;9.23;8.43;;;6.50;99.90;;;;;;5095931;28;20652;-53
2021/04/18 05:40:20;;;;;;;9.40;8.50;;;6.60;99.90;;;;;;5101247;28;20527;-52
2021/04/18 05:42:46;;;;;;;9.10;8.30;;;6.50;99.90;;;;;;5099240;28;20629;-52
2021/04/18 05:45:12;;;;;;;9.90;8.87;;;6.70;99.90;;;;;;5097206;28;20215;-49
2021/04/18 05:47:38;;;;;;;10.10;8.98;;;6.70;99.90;;;;;;5104423;28;20272;-49
2021/04/18 05:50:04;;;;;;;10.03;9.07;;;6.90;99.90;;;;;;5103909;28;20190;-50
2021/04/18 05:52:30;;;;;;;8.80;8.10;;;6.80;99.90;;;;;;5101060;28;20204;-50
2021/04/18 05:54:56;;;;;;;8.23;7.47;;;6.80;99.90;;;;;;5108805;27;20202;-51
2021/04/18 05:57:21;;;;;;;8.50;7.10;;;6.80;99.90;;;;;;5098753;28;20175;-50
2021/04/18 05:59:47;;;;;;;9.07;8.17;;;6.90;99.90;;;;;;5103033;27;20242;-51
2021/04/18 06:02:13;;;;;;;7.93;7.23;;;6.80;99.90;;;;;;5100220;27;20208;-52
2021/04/18 06:04:38;;;;;;;9.83;8.93;;;6.80;99.90;;;;;;5099833;28;20205;-51
2021/04/18 06:07:04;;;;;;;8.37;7.57;;;6.90;99.90;;;;;;5104125;27;20209;-52
2021/04/18 06:09:30;;;;;;;8.73;7.93;;;6.90;99.90;;;;;;5102204;27;20622;-52
2021/04/18 06:11:56;;;;;;;9.20;8.40;;;7.30;99.90;;;;;;5102780;27;20238;-50
2021/04/18 06:14:21;;;;;;;7.90;7.20;;;7.40;99.90;;;;;;5102970;27;20728;-51
2021/04/18 06:16:48;;;;;;;9.10;8.20;;;7.10;99.90;;;;;;5101095;28;20435;-49
2021/04/18 06:19:15;;;;;;;9.25;8.35;;;7.30;99.90;;;;;;5111095;27;20211;-50
2021/04/18 06:21:41;;;;;;;7.72;7.10;;;7.30;99.90;;;;;;5098778;28;20195;-50
2021/04/18 06:24:08;;;;;;;8.33;7.53;;;7.30;99.90;;;;;;5114815;27;20625;-50
2021/04/18 06:26:33;;;;;;;9.82;8.80;;;6.90;99.90;;;;;;5098673;27;20979;-53
2021/04/18 06:28:59;;;;;;;10.23;9.10;;;7.00;99.90;;;;;;5105977;27;20218;-54
2021/04/18 06:31:24;;;;;;;10.97;9.10;;;7.30;99.90;;;;;;5104215;27;20222;-50
2021/04/18 06:33:50;;;;;;;9.13;8.27;;;7.30;99.90;;;;;;5102502;28;20601;-52
2021/04/18 06:36:16;;;;;;;10.10;8.73;;;7.20;99.90;;;;;;5099018;27;20237;-51
2021/04/18 06:38:42;;;;;;;9.55;8.73;;;7.00;99.90;;;;;;5097793;27;21741;-48
2021/04/18 06:41:19;;;;;;;10.40;9.40;;;6.30;99.90;;;;;;5100313;27;20210;-50
2021/04/18 06:43:46;;;;;;;9.65;8.80;;;7.00;99.90;;;;;;5100014;27;20183;-50
2021/04/18 06:46:16;;;;;;;9.75;8.77;;;7.00;99.90;;;;;;5105166;28;20181;-51
2021/04/18 06:48:44;;;;;;;9.70;8.70;;;7.10;99.90;;;;;;5097657;28;20213;-50
2021/04/18 06:51:09;;;;;;;10.43;9.43;;;7.20;99.90;;;;;;5112746;27;20233;-51
2021/04/18 06:53:35;;;;;;;9.37;8.37;;;7.30;99.90;;;;;;5103304;28;20332;-51
2021/04/18 06:56:05;;;;;;;10.43;8.60;;;7.40;99.90;;;;;;5098822;27;20361;-50
2021/04/18 06:58:32;;;;;;;10.07;9.07;;;7.50;99.90;;;;;;5104784;27;20211;-50
2021/04/18 07:00:59;;;;;;;11.38;9.02;;;7.60;99.90;;;;;;5101338;27;20225;-50
2021/04/18 07:03:25;;;;;;;9.77;8.77;;;7.60;99.90;;;;;;5101481;28;20600;-50
2021/04/18 07:05:59;;;;;;;9.93;8.60;;;7.80;99.90;;;;;;5097743;27;20194;-50
2021/04/18 07:08:30;;;;;;;9.85;8.85;;;7.60;99.90;;;;;;5099691;28;20751;-50
2021/04/18 07:11:09;;;;;;;9.85;8.77;;;8.10;99.90;;;;;;5100281;28;20211;-50
2021/04/18 07:13:35;;;;;;;9.32;8.43;;;8.50;99.90;;;;;;5099821;28;20564;-50
2021/04/18 07:16:01;;;;;;;9.32;8.40;;;8.30;99.80;;;;;;5107706;28;20232;-50
2021/04/18 07:18:37;;;;;;;9.50;8.60;;;8.30;99.90;;;;;;5104597;28;20585;-50
2021/04/18 07:21:03;;;;;;;10.30;9.30;;;8.70;99.90;;;;;;5104348;28;20697;-50
2021/04/18 07:23:31;;;;;;;10.40;9.40;;;8.90;99.30;;;;;;5104535;27;20199;-51
2021/04/18 07:25:57;;;;;;;11.80;10.63;;;8.70;98.80;;;;;;5103288;28;20851;-50
2021/04/18 07:28:25;;;;;;;11.98;9.10;;;8.40;99.00;;;;;;5107230;28;20677;-50
2021/04/18 07:30:55;;;;;;;9.77;8.70;;;8.20;99.60;;;;;;5103879;28;20240;-50
2021/04/18 07:33:20;;;;;;;8.88;8.07;;;8.60;99.50;;;;;;5096665;28;20267;-50
2021/04/18 07:35:46;;;;;;;9.37;8.27;;;8.80;98.90;;;;;;5105659;28;20291;-50
2021/04/18 07:38:18;;;;;;;8.90;8.03;;;9.00;98.00;;;;;;5107650;28;20176;-51
2021/04/18 07:40:44;;;;;;;9.93;7.95;;;8.90;97.60;;;;;;5101241;28;20183;-50
2021/04/18 07:43:11;;;;;;;10.15;7.93;;;9.20;97.30;;;;;;5105209;28;20213;-51
2021/04/18 07:45:38;;;;;;;8.60;7.00;;;8.90;96.70;;;;;;5104307;28;20261;-50
2021/04/18 07:48:08;;;;;;;7.70;7.00;;;9.10;96.60;;;;;;5105105;28;20196;-50
2021/04/18 07:50:35;;;;;;;9.38;7.80;;;9.20;96.50;;;;;;5100952;28;20306;-50
2021/04/18 07:53:01;;;;;;;9.50;8.20;;;9.10;96.50;;;;;;5100620;28;20188;-50
2021/04/18 07:55:29;;;;;;;9.15;8.05;;;9.00;96.60;;;;;;5104605;27;20273;-50
2021/04/18 07:57:55;;;;;;;8.93;7.80;;;9.10;97.10;;;;;;5108414;28;20642;-50
2021/04/18 08:00:22;;;;;;;9.60;8.50;;;9.10;97.10;;;;;;5107310;28;20180;-50
2021/04/18 08:02:49;;;;;;;7.85;6.65;;;9.20;97.00;;;;;;5105694;28;20204;-50
2021/04/18 08:05:16;;;;;;;8.55;7.65;;;9.20;96.20;;;;;;5107621;28;20658;-50
2021/04/18 08:08:15;;;;;;;8.80;7.43;;;8.90;96.50;;;;;;5105865;28;20218;-50
2021/04/18 08:10:43;;;;;;;8.23;7.43;;;9.10;96.80;;;;;;5053329;28;20195;-50
2021/04/18 08:13:22;;;;;;;8.23;7.45;;;9.30;96.70;;;;;;5101038;28;20176;-50
2021/04/18 08:15:55;;;;;;;8.68;7.88;;;9.00;96.30;;;;;;5106649;28;20184;-50
2021/04/18 08:18:48;;;;;;;8.90;7.28;;;9.20;97.10;;;;;;5107025;28;20177;-50
2021/04/18 08:21:24;;;;;;;8.77;6.97;;;9.00;96.80;;;;;;5106939;28;20237;-50
2021/04/18 08:23:51;;;;;;;9.05;8.15;;;9.10;97.40;;;;;;5104765;28;20194;-50
2021/04/18 08:26:18;;;;;;;9.13;6.88;;;9.30;96.40;;;;;;5107450;28;20190;-50
2021/04/18 08:28:58;;;;;;;6.78;6.07;;;9.50;95.80;;;;;;5107307;28;20227;-50
2021/04/18 08:31:49;;;;;;;6.95;6.25;;;9.80;94.70;;;;;;5106846;28;20275;-50
2021/04/18 08:34:20;;;;;;;6.50;5.85;;;9.80;94.90;;;;;;5093425;28;20187;-50
2021/04/18 08:36:52;;;;;;;7.03;6.30;;;9.20;95.40;;;;;;5102013;28;20195;-50
2021/04/18 08:39:23;;;;;;;7.07;6.35;;;9.20;95.60;;;;;;5106846;28;20184;-50
2021/04/18 08:41:54;;;;;;;6.25;5.60;;;9.60;94.80;;;;;;5107531;28;20428;-50
2021/04/18 08:44:30;;;;;;;8.85;6.13;;;9.60;94.00;;;;;;5106726;28;20187;-50
2021/04/18 08:47:08;;;;;;;6.43;5.15;;;9.70;93.70;;;;;;5106849;28;20175;-50
2021/04/18 08:49:45;;;;;;;7.07;6.35;;;9.70;93.30;;;;;;5106571;28;20171;-50
2021/04/18 08:52:21;;;;;;;6.13;5.40;;;10.00;92.80;;;;;;5107812;28;20286;-50
2021/04/18 08:54:48;;;;;;;6.63;5.32;;;9.90;93.10;;;;;;5107022;28;20186;-49
2021/04/18 08:57:15;;;;;;;6.40;5.45;;;9.30;92.80;;;;;;5101162;28;20673;-50
2021/04/18 08:59:45;;;;;;;8.45;5.90;;;9.30;93.80;;;;;;5103723;28;20230;-50
2021/04/18 09:02:12;;;;;;;6.25;5.20;;;9.50;93.40;;;;;;5099326;28;20222;-50
2021/04/18 09:04:42;;;;;;;6.75;4.95;;;9.90;92.30;;;;;;5100671;28;20240;-50
2021/04/18 09:07:11;;;;;;;6.40;4.53;;;9.90;91.90;;;;;;5105883;28;20231;-50
2021/04/18 09:09:37;;;;;;;5.82;5.28;;;10.20;91.30;;;;;;5099957;28;20176;-50
2021/04/18 09:12:03;;;;;;;6.77;5.20;;;10.20;91.10;;;;;;5103495;28;20659;-50
2021/04/18 09:14:31;;;;;;;6.18;5.35;;;10.10;90.50;;;;;;5104927;28;20425;-50
2021/04/18 09:17:23;;;;;;;6.93;5.95;;;10.60;90.40;;;;;;5102693;28;20220;-50
2021/04/18 09:20:09;;;;;;;6.82;6.10;;;10.60;90.20;;;;;;5105197;28;20223;-50
2021/04/18 09:22:40;;;;;;;6.82;6.13;;;10.70;90.00;;;;;;5097288;28;20231;-50
2021/04/18 09:25:13;;;;;;;6.53;5.88;;;10.60;90.30;;;;;;5098867;28;20181;-50
2021/04/18 09:27:51;;;;;;;6.80;5.40;;;10.70;90.10;;;;;;5099829;28;20303;-50
2021/04/18 09:30:29;;;;;;;7.63;6.63;;;10.50;89.70;;;;;;5103052;28;20524;-50
2021/04/18 09:32:59;;;;;;;6.18;5.63;;;10.60;89.30;;;;;;5108467;28;20298;-49
2021/04/18 09:35:26;;;;;;;7.20;6.25;;;10.90;89.20;;;;;;5095385;28;20169;-50
2021/04/18 09:38:01;;;;;;;7.03;6.25;;;10.80;89.80;;;;;;5105846;28;20245;-50
2021/04/18 09:40:30;;;;;;;6.82;6.20;;;10.40;90.20;;;;;;5106028;28;20233;-50
2021/04/18 09:42:56;;;;;;;8.43;7.18;;;10.30;90.70;;;;;;5107241;27;20310;-54
2021/04/18 09:45:27;;;;;;;6.30;5.70;;;10.20;90.10;;;;;;5103909;27;20263;-54
2021/04/18 09:48:06;;;;;;;8.98;7.25;;;10.30;89.80;;;;;;5102655;28;20280;-50
2021/04/18 09:50:35;;;;;;;7.75;7.03;;;10.50;90.20;;;;;;5104160;27;20184;-51
2021/04/18 09:53:11;;;;;;;7.60;6.90;;;10.40;90.80;;;;;;5104239;27;20270;-52
2021/04/18 09:55:51;;;;;;;7.40;6.70;;;10.40;90.30;;;;;;5104681;27;20179;-51
2021/04/18 09:58:26;;;;;;;7.50;6.80;;;10.90;90.40;;;;;;5108585;27;20203;-53
2021/04/18 10:00:51;;;;;;;7.50;6.53;;;11.10;90.20;;;;;;5105384;27;20203;-52
2021/04/18 10:03:17;;;;;;;7.37;6.70;;;11.00;89.20;;;;;;5100725;27;20540;-51
2021/04/18 10:05:45;;;;;;;8.50;6.90;;;11.30;88.70;;;;;;5105378;27;20210;-51
2021/04/18 10:08:21;;;;;;;8.68;7.78;;;11.00;88.70;;;;;;5104871;27;20204;-52
2021/04/18 10:10:50;;;;;;;6.85;6.25;;;11.10;87.90;;;;;;5104314;27;20682;-52
2021/04/18 10:13:33;;;;;;;7.72;6.60;;;11.10;87.20;;;;;;5103147;27;20191;-50
2021/04/18 10:16:01;;;;;;;7.22;6.53;;;11.40;87.20;;;;;;5105443;27;20212;-51
2021/04/18 10:18:27;;;;;;;8.73;6.55;;;11.40;87.40;;;;;;5103784;28;20199;-52
2021/04/18 10:21:13;;;;;;;9.17;7.10;;;11.70;86.30;;;;;;5115168;27;20283;-51
2021/04/18 10:23:42;;;;;;;7.43;6.55;;;11.50;85.30;;;;;;5109189;27;20184;-50
2021/04/18 10:26:08;;;;;;;7.72;6.93;;;11.80;85.40;;;;;;5121453;27;20193;-51
2021/04/18 10:28:34;;;;;;;9.00;8.10;;;11.90;84.70;;;;;;5102158;27;20220;-50
2021/04/18 10:31:00;;;;;;;7.97;7.27;;;12.10;83.70;;;;;;5109043;27;20214;-50
2021/04/18 10:33:26;;;;;;;8.07;6.72;;;12.20;83.20;;;;;;5105522;27;20427;-51
2021/04/18 10:35:56;;;;;;;7.70;7.00;;;12.70;82.30;;;;;;5109477;27;20183;-51
2021/04/18 10:38:22;;;;;;;7.95;6.93;;;12.10;82.10;;;;;;5104205;28;20180;-50
2021/04/18 10:40:48;;;;;;;9.83;8.20;;;12.20;83.40;;;;;;5107870;28;20192;-50
2021/04/18 10:43:13;;;;;;;7.97;7.23;;;12.10;83.90;;;;;;5104747;27;20698;-50
2021/04/18 10:45:39;;;;;;;8.93;7.70;;;12.20;82.60;;;;;;5100297;27;20194;-50
2021/04/18 10:48:06;;;;;;;8.52;7.60;;;12.70;80.90;;;;;;5103003;27;20231;-50
2021/04/18 10:50:32;;;;;;;10.55;8.23;;;12.50;81.50;;;;;;5100786;27;20703;-50
2021/04/18 10:52:58;;;;;;;10.70;7.77;;;12.10;80.00;;;;;;5096696;27;20178;-51
2021/04/18 10:55:24;;;;;;;7.90;7.20;;;12.50;80.40;;;;;;5108185;28;20187;-51
2021/04/18 10:57:49;;;;;;;13.97;9.27;;;12.50;81.30;;;;;;5102438;28;20192;-54
2021/04/18 11:00:17;;;;;;;9.17;7.20;;;12.70;81.10;;;;;;5101471;28;20539;-51
2021/04/18 11:02:43;;;;;;;8.68;7.88;;;12.60;80.60;;;;;;5111754;28;20205;-50
2021/04/18 11:05:10;;;;;;;8.43;7.07;;;12.80;81.30;;;;;;5107118;28;20620;-51
2021/04/18 11:07:36;;;;;;;8.45;7.65;;;12.80;79.80;;;;;;5108002;28;20463;-51
2021/04/18 11:10:02;;;;;;;9.23;8.03;;;12.50;82.90;;;;;;5107862;28;20414;-51
2021/04/18 11:12:27;;;;;;;11.68;7.50;;;12.40;84.00;;;;;;5108478;28;20200;-51
2021/04/18 11:14:53;;;;;;;7.93;6.93;;;12.70;83.30;;;;;;5108083;28;20543;-51
2021/04/18 11:17:19;;;;;;;9.13;7.30;;;12.70;82.80;;;;;;5091179;28;20610;-51
2021/04/18 11:19:45;;;;;;;13.03;7.53;;;12.50;80.60;;;;;;5108198;28;20232;-51
2021/04/18 11:22:10;;;;;;;9.17;8.00;;;12.80;81.90;;;;;;5107047;28;20815;-51
2021/04/18 11:24:36;;;;;;;9.53;7.37;;;12.50;82.50;;;;;;5108029;28;20993;-51
2021/04/18 11:27:02;;;;;;;7.55;6.53;;;11.90;81.70;;;;;;5108869;28;20181;-51
2021/04/18 11:29:28;;;;;;;8.60;7.70;;;12.40;81.90;;;;;;5108656;28;20167;-51
2021/04/18 11:31:54;;;;;;;8.23;7.40;;;12.80;80.50;;;;;;5107122;28;20511;-51
2021/04/18 11:34:20;;;;;;;9.68;8.45;;;12.80;81.60;;;;;;5108636;28;20669;-51
2021/04/18 11:36:46;;;;;;;8.93;8.03;;;12.70;79.00;;;;;;5109851;28;20181;-51
2021/04/18 11:39:11;;;;;;;8.10;7.00;;;12.50;79.10;;;;;;5105434;28;20750;-51
2021/04/18 11:41:37;;;;;;;8.10;7.30;;;12.30;79.20;;;;;;5106363;28;20267;-51
2021/04/18 11:44:04;;;;;;;8.50;7.70;;;12.60;79.50;;;;;;5108927;28;20234;-51
2021/04/18 11:46:31;;;;;;;7.55;6.85;;;12.70;79.10;;;;;;5105471;28;20188;-51
2021/04/18 11:48:57;;;;;;;7.80;7.00;;;13.10;80.00;;;;;;5105561;28;20201;-50
2021/04/18 11:51:23;;;;;;;7.63;6.90;;;13.00;78.30;;;;;;5107252;28;20732;-50
2021/04/18 11:53:48;;;;;;;8.77;7.90;;;13.20;78.20;;;;;;5107226;28;20201;-51
2021/04/18 11:56:14;;;;;;;8.77;7.87;;;12.90;77.30;;;;;;5107724;28;20272;-50
2021/04/18 11:58:40;;;;;;;7.80;7.10;;;12.90;77.60;;;;;;5107321;28;20292;-50
2021/04/18 12:01:05;;;;;;;8.53;7.20;;;12.80;77.70;;;;;;5107710;28;20213;-50
2021/04/18 12:03:31;;;;;;;9.80;8.00;;;12.90;77.80;;;;;;5107114;28;20205;-50
2021/04/18 12:05:57;;;;;;;7.90;7.17;;;12.70;77.90;;;;;;5107954;28;20269;-51
2021/04/18 12:08:23;;;;;;;9.82;7.63;;;12.70;79.60;;;;;;5106868;28;20862;-50
2021/04/18 12:10:49;;;;;;;7.37;6.60;;;12.40;78.20;;;;;;5107451;28;20235;-50
2021/04/18 12:13:15;;;;;;;8.27;6.60;;;12.60;79.20;;;;;;5103939;28;20179;-51
2021/04/18 12:15:40;;;;;;;7.27;6.57;;;12.80;79.20;;;;;;5106284;28;20930;-51
2021/04/18 12:18:06;;;;;;;7.40;6.70;;;12.60;78.90;;;;;;5107365;28;20185;-50
2021/04/18 12:20:32;;;;;;;7.67;6.93;;;12.50;79.70;;;;;;5107123;28;20169;-51
2021/04/18 12:22:57;;;;;;;7.67;6.97;;;12.70;79.70;;;;;;5107216;28;20432;-51
2021/04/18 12:25:23;;;;;;;9.40;7.00;;;12.40;80.30;;;;;;5106969;28;20176;-51
2021/04/18 12:27:49;;;;;;;7.87;7.03;;;12.50;80.60;;;;;;5106948;28;20205;-50
2021/04/18 12:30:15;;;;;;;8.60;6.90;;;12.60;79.70;;;;;;5106869;28;20784;-50
2021/04/18 12:32:45;;;;;;;8.48;7.30;;;13.10;80.10;;;;;;5107166;28;20339;-51
2021/04/18 12:35:11;;;;;;;8.35;7.05;;;12.80;78.20;;;;;;5107050;28;20183;-51
2021/04/18 12:37:37;;;;;;;7.85;7.05;;;12.70;78.50;;;;;;5106908;28;20263;-50
2021/04/18 12:40:03;;;;;;;8.90;6.93;;;12.80;80.40;;;;;;5107205;28;20663;-51
2021/04/18 12:42:29;;;;;;;7.88;7.10;;;12.80;79.30;;;;;;5106608;28;20280;-51
2021/04/18 12:44:54;;;;;;;7.77;7.07;;;13.40;79.60;;;;;;5107026;28;20213;-51
2021/04/18 12:47:20;;;;;;;8.10;7.10;;;13.40;78.70;;;;;;5107082;28;20213;-51
2021/04/18 12:49:46;;;;;;;8.70;7.80;;;13.80;77.70;;;;;;5107217;28;20599;-51
2021/04/18 12:52:12;;;;;;;7.50;6.78;;;13.80;77.80;;;;;;5106413;28;20228;-51
2021/04/18 12:54:38;;;;;;;8.60;7.03;;;13.80;77.00;;;;;;5106655;28;20581;-51